createdAt,value
2022-11-14T00:01:25.664Z,58.93
2022-11-14T00:03:53.683Z,35.80
2022-11-14T00:06:21.892Z,72.20
2022-11-14T00:08:49.902Z,44.00
2022-11-14T00:11:19.302Z,55.33
2022-11-14T00:13:47.563Z,61.20
2022-11-14T00:16:15.587Z,108.73
2022-11-14T00:18:43.567Z,43.07
2022-11-14T00:21:11.610Z,38.27
2022-11-14T00:23:39.741Z,215.10
2022-11-14T00:26:08.062Z,60.00
2022-11-14T00:28:37.480Z,42.73
2022-11-14T00:31:05.979Z,91.83
2022-11-14T00:33:34.111Z,68.47
2022-11-14T00:36:02.363Z,70.60
2022-11-14T00:38:30.602Z,71.20
2022-11-14T00:40:58.968Z,63.40
2022-11-14T00:43:27.011Z,50.73
2022-11-14T00:45:56.403Z,46.77
2022-11-14T00:48:24.572Z,45.67
2022-11-14T00:50:52.560Z,95.33
2022-11-14T00:53:20.577Z,64.40
2022-11-14T00:55:48.674Z,72.83
2022-11-14T00:58:16.699Z,80.23
2022-11-14T01:00:44.733Z,48.67
2022-11-14T01:03:14.201Z,68.33
2022-11-14T01:05:43.432Z,77.50
2022-11-14T01:08:12.139Z,61.10
2022-11-14T01:10:41.812Z,54.97
2022-11-14T01:13:10.440Z,141.07
2022-11-14T01:15:40.560Z,63.70
2022-11-14T01:18:08.624Z,106.00
2022-11-14T01:20:39.816Z,74.87
2022-11-14T01:23:07.866Z,91.10
2022-11-14T01:25:36.684Z,72.87
2022-11-14T01:28:07.957Z,117.63
2022-11-14T01:30:36.360Z,64.77
2022-11-14T01:33:04.501Z,57.97
2022-11-14T01:35:32.918Z,68.57
2022-11-14T01:38:02.860Z,39.73
2022-11-14T01:40:30.999Z,48.73
2022-11-14T01:43:26.796Z,61.30
2022-11-14T01:45:57.803Z,67.13
2022-11-14T01:48:31.396Z,78.97
2022-11-14T01:51:03.622Z,107.07
2022-11-14T01:53:33.535Z,90.43
2022-11-14T01:56:06.569Z,36.93
2022-11-14T01:58:36.695Z,391.03
2022-11-14T02:01:05.075Z,64.70
2022-11-14T02:03:34.546Z,51.70
2022-11-14T02:06:03.357Z,215.27
2022-11-14T02:08:33.895Z,96.40
2022-11-14T02:11:01.943Z,106.83
2022-11-14T02:13:30.233Z,198.57
2022-11-14T02:15:58.598Z,622.27
2022-11-14T02:18:26.790Z,469.97
2022-11-14T02:20:56.298Z,115.53
2022-11-14T02:23:28.426Z,224.50
2022-11-14T02:25:56.769Z,79.97
2022-11-14T02:28:25.182Z,317.00
2022-11-14T02:30:53.210Z,114.73
2022-11-14T02:33:21.258Z,76.33
2022-11-14T02:35:49.519Z,55.13
2022-11-14T02:38:18.903Z,66.07
2022-11-14T02:40:46.986Z,43.43
2022-11-14T02:43:14.967Z,98.90
2022-11-14T02:45:43.026Z,86.90
2022-11-14T02:48:11.032Z,58.20
2022-11-14T02:50:39.124Z,47.30
2022-11-14T02:53:07.146Z,88.50
2022-11-14T02:55:36.573Z,89.27
2022-11-14T02:58:04.582Z,78.17
2022-11-14T03:00:32.645Z,55.60
2022-11-14T03:03:00.696Z,100.83
2022-11-14T03:05:28.697Z,63.30
2022-11-14T03:07:57.514Z,81.73
2022-11-14T03:10:25.833Z,285.93
2022-11-14T03:12:56.711Z,68.70
2022-11-14T03:15:25.332Z,81.00
2022-11-14T03:17:53.419Z,54.30
2022-11-14T03:20:21.770Z,83.37
2022-11-14T03:22:49.800Z,74.17
2022-11-14T03:25:17.974Z,67.67
2022-11-14T03:27:45.977Z,44.33
2022-11-14T03:30:15.797Z,54.13
2022-11-14T03:32:43.954Z,41.33
2022-11-14T03:35:12.246Z,59.17
2022-11-14T03:37:40.276Z,107.83
2022-11-14T03:40:09.987Z,80.97
2022-11-14T03:42:37.985Z,75.87
2022-11-14T03:45:07.038Z,101.97
2022-11-14T03:47:36.459Z,461.93
2022-11-14T03:50:04.943Z,65.10
2022-11-14T03:52:32.968Z,159.50
2022-11-14T03:55:01.006Z,101.30
2022-11-14T03:57:29.007Z,94.50
2022-11-14T03:59:57.060Z,70.73
2022-11-14T04:02:25.064Z,88.87
2022-11-14T04:04:54.471Z,43.87
2022-11-14T04:07:22.618Z,350.47
2022-11-14T04:09:51.972Z,92.53
2022-11-14T04:12:20.154Z,104.40
2022-11-14T04:14:48.167Z,61.67
2022-11-14T04:17:16.199Z,64.13
2022-11-14T04:19:44.242Z,77.03
2022-11-14T04:22:13.677Z,93.97
2022-11-14T04:24:41.672Z,70.83
2022-11-14T04:27:09.697Z,88.33
2022-11-14T04:29:37.692Z,78.73
2022-11-14T04:32:06.019Z,92.27
2022-11-14T04:34:34.046Z,63.10
2022-11-14T04:37:02.069Z,60.07
2022-11-14T04:39:31.655Z,74.03
2022-11-14T04:41:59.701Z,126.30
2022-11-14T04:44:27.726Z,129.30
2022-11-14T04:46:55.754Z,72.70
2022-11-14T04:49:24.409Z,290.73
2022-11-14T04:51:52.513Z,109.90
2022-11-14T04:54:20.509Z,46.53
2022-11-14T04:56:49.920Z,163.60
2022-11-14T04:59:20.798Z,87.07
2022-11-14T05:01:49.509Z,58.70
2022-11-14T05:04:17.594Z,209.47
2022-11-14T05:06:45.701Z,82.30
2022-11-14T05:09:13.793Z,105.53
2022-11-14T05:11:41.917Z,92.37
2022-11-14T05:14:11.297Z,78.43
2022-11-14T05:16:39.354Z,85.73
2022-11-14T05:19:07.357Z,109.30
2022-11-14T05:21:35.401Z,306.57
2022-11-14T05:24:03.434Z,299.43
2022-11-14T05:26:31.470Z,92.77
2022-11-14T05:28:59.489Z,100.70
2022-11-14T05:31:28.854Z,264.67
2022-11-14T05:33:56.878Z,473.57
2022-11-14T05:36:24.946Z,137.03
2022-11-14T05:38:53.379Z,60.40
2022-11-14T05:41:21.620Z,101.63
2022-11-14T05:43:49.812Z,102.13
2022-11-14T05:46:18.265Z,141.97
2022-11-14T05:48:47.675Z,134.20
2022-11-14T05:51:15.919Z,149.70
2022-11-14T05:53:44.042Z,61.60
2022-11-14T05:56:13.548Z,138.37
2022-11-14T05:58:41.973Z,102.57
2022-11-14T06:01:13.061Z,74.57
2022-11-14T06:03:42.774Z,122.13
2022-11-14T06:06:15.196Z,251.07
2022-11-14T06:08:43.496Z,84.57
2022-11-14T06:11:13.539Z,123.07
2022-11-14T06:13:41.976Z,128.47
2022-11-14T06:16:13.810Z,64.87
2022-11-14T06:18:42.034Z,83.03
2022-11-14T06:21:13.279Z,118.40
2022-11-14T06:23:41.469Z,207.43
2022-11-14T06:26:16.276Z,76.77
2022-11-14T06:28:44.278Z,122.50
2022-11-14T06:31:12.289Z,99.03
2022-11-14T06:33:40.310Z,119.60
2022-11-14T06:36:09.822Z,139.13
2022-11-14T06:38:40.691Z,136.50
2022-11-14T06:41:10.432Z,93.83
2022-11-14T06:43:40.533Z,147.53
2022-11-14T06:46:10.854Z,101.53
2022-11-14T06:48:39.318Z,77.67
2022-11-14T06:51:08.221Z,78.97
2022-11-14T06:53:38.236Z,107.57
2022-11-14T06:56:08.284Z,106.53
2022-11-14T06:58:38.957Z,141.87
2022-11-14T07:01:11.785Z,144.23
2022-11-14T07:03:39.890Z,135.50
2022-11-14T07:06:08.838Z,96.33
2022-11-14T07:08:38.706Z,132.53
2022-11-14T07:11:08.770Z,60.67
2022-11-14T07:13:37.574Z,93.47
2022-11-14T07:16:06.465Z,150.33
2022-11-14T07:18:35.074Z,132.47
2022-11-14T07:21:05.183Z,121.47
2022-11-14T07:23:34.366Z,73.37
2022-11-14T07:26:04.869Z,101.53
2022-11-14T07:28:33.223Z,65.07
2022-11-14T07:31:03.614Z,106.17
2022-11-14T07:33:32.174Z,74.03
2022-11-14T07:36:00.607Z,87.63
2022-11-14T07:38:29.078Z,97.23
2022-11-14T07:40:59.812Z,65.87
2022-11-14T07:43:29.825Z,137.60
2022-11-14T07:46:00.397Z,241.13
2022-11-14T07:48:28.874Z,73.83
2022-11-14T07:51:00.697Z,106.57
2022-11-14T07:53:29.355Z,99.73
2022-11-14T07:55:57.700Z,90.27
2022-11-14T07:58:25.753Z,80.07
2022-11-14T08:00:55.229Z,123.90
2022-11-14T08:03:23.444Z,76.57
2022-11-14T08:05:51.482Z,77.53
2022-11-14T08:08:19.533Z,56.43
2022-11-14T08:10:47.547Z,97.43
2022-11-14T08:13:33.254Z,106.97
2022-11-14T08:16:12.475Z,102.83
2022-11-14T08:18:41.734Z,112.13
2022-11-14T08:21:09.876Z,73.47
2022-11-14T08:23:38.847Z,59.80
2022-11-14T08:26:07.608Z,123.83
2022-11-14T08:28:35.611Z,101.37
2022-11-14T08:31:04.351Z,67.23
2022-11-14T08:33:33.985Z,104.53
2022-11-14T08:36:02.774Z,72.77
2022-11-14T08:38:33.077Z,159.73
2022-11-14T08:41:01.726Z,102.20
2022-11-14T08:43:29.779Z,151.87
2022-11-14T08:46:01.523Z,159.20
2022-11-14T08:48:31.322Z,234.13
2022-11-14T08:51:04.589Z,96.47
2022-11-14T08:53:32.707Z,95.13
2022-11-14T08:56:00.749Z,69.67
2022-11-14T08:58:31.374Z,62.60
2022-11-14T09:01:03.720Z,120.97
2022-11-14T09:03:31.901Z,133.53
2022-11-14T09:06:02.244Z,117.20
2022-11-14T09:08:31.202Z,1430.17
2022-11-14T09:11:05.178Z,996.90
2022-11-14T09:13:34.214Z,1862.43
2022-11-14T09:16:02.591Z,428.83
2022-11-14T09:18:31.785Z,72.77
2022-11-14T09:21:03.019Z,125.07
2022-11-14T09:23:31.745Z,129.63
2022-11-14T09:26:04.122Z,177.23
2022-11-14T09:28:32.170Z,301.27
2022-11-14T09:31:02.583Z,160.83
2022-11-14T09:33:31.063Z,1045.40
2022-11-14T09:35:59.965Z,834.53
2022-11-14T09:38:32.788Z,258.27
2022-11-14T09:41:17.441Z,215.60
2022-11-14T09:44:05.329Z,486.07
2022-11-14T09:46:38.414Z,220.83
2022-11-14T09:49:12.555Z,425.87
2022-11-14T09:51:49.206Z,258.13
2022-11-14T09:54:24.302Z,419.13
2022-11-14T09:56:52.988Z,676.73
2022-11-14T09:59:21.307Z,193.23
2022-11-14T10:01:58.428Z,374.50
2022-11-14T10:04:40.641Z,486.67
2022-11-14T10:07:16.359Z,312.73
2022-11-14T10:10:04.178Z,434.00
2022-11-14T10:12:44.550Z,375.23
2022-11-14T10:15:19.821Z,145.13
2022-11-14T10:18:13.156Z,127.80
2022-11-14T10:20:45.987Z,578.80
2022-11-14T10:23:28.094Z,264.10
2022-11-14T10:26:08.955Z,1069.97
2022-11-14T10:28:48.538Z,576.93
2022-11-14T10:31:24.409Z,1999.90
2022-11-14T10:34:00.360Z,623.73
2022-11-14T10:36:40.394Z,479.17
2022-11-14T10:39:17.515Z,570.57
2022-11-14T10:41:57.904Z,389.80
2022-11-14T10:44:34.393Z,623.17
2022-11-14T10:47:07.596Z,496.30
2022-11-14T10:49:38.590Z,1677.43
2022-11-14T10:52:13.492Z,326.47
2022-11-14T10:54:46.874Z,653.70
2022-11-14T10:57:21.583Z,321.27
2022-11-14T10:59:50.245Z,342.87
2022-11-14T11:02:18.324Z,836.70
2022-11-14T11:04:46.779Z,723.87
2022-11-14T11:07:40.749Z,78.33
2022-11-14T11:10:37.846Z,1974.47
2022-11-14T11:13:12.890Z,543.17
2022-11-14T11:15:42.349Z,1213.60
2022-11-14T11:18:27.177Z,64.33
2022-11-14T11:21:17.613Z,982.30
2022-11-14T11:23:53.558Z,285.23
2022-11-14T11:26:24.166Z,1574.20
2022-11-14T11:29:06.603Z,1999.90
2022-11-14T11:31:52.657Z,688.90
2022-11-14T11:34:25.338Z,291.07
2022-11-14T11:36:59.113Z,1373.43
2022-11-14T11:39:30.752Z,1999.90
2022-11-14T11:42:08.673Z,1999.90
2022-11-14T11:44:45.160Z,1999.90
2022-11-14T11:47:17.266Z,737.77
2022-11-14T11:49:53.003Z,1423.23
2022-11-14T11:52:31.575Z,1077.57
2022-11-14T11:55:04.772Z,1302.70
2022-11-14T11:57:36.741Z,1767.17
2022-11-14T12:00:15.328Z,1355.23
2022-11-14T12:02:49.936Z,1999.90
2022-11-14T12:05:26.790Z,1999.90
2022-11-14T12:08:04.304Z,1999.90
2022-11-14T12:10:35.352Z,214.83
2022-11-14T12:13:23.371Z,859.57
2022-11-14T12:16:08.907Z,1648.93
2022-11-14T12:19:13.405Z,868.10
2022-11-14T12:22:09.839Z,1621.90
2022-11-14T12:25:03.768Z,1999.90
2022-11-14T12:27:50.583Z,1072.63
2022-11-14T12:30:21.884Z,348.73
2022-11-14T12:32:57.483Z,699.93
2022-11-14T12:35:29.554Z,440.93
2022-11-14T12:38:00.080Z,845.50
2022-11-14T12:40:32.333Z,196.13
2022-11-14T12:43:02.575Z,409.67
2022-11-14T12:45:59.851Z,249.13
2022-11-14T12:48:34.522Z,57.10
2022-11-14T12:51:03.581Z,692.93
2022-11-14T12:53:42.940Z,650.50
2022-11-14T12:56:27.560Z,957.17
2022-11-14T12:59:13.375Z,288.33
2022-11-14T13:01:56.245Z,1039.43
2022-11-14T13:04:35.237Z,1543.57
2022-11-14T13:07:22.509Z,590.37
2022-11-14T13:10:16.610Z,320.80
2022-11-14T13:13:15.505Z,649.30
2022-11-14T13:16:11.715Z,1969.47
2022-11-14T13:19:11.009Z,855.37
2022-11-14T13:22:00.542Z,1999.90
2022-11-14T13:24:48.604Z,1999.90
2022-11-14T13:27:52.366Z,902.97
2022-11-14T13:30:17.397Z,1660.17
2022-11-14T13:33:06.178Z,1511.33
2022-11-14T13:35:43.317Z,1999.90
2022-11-14T13:38:43.987Z,1947.33
2022-11-14T13:41:28.072Z,1652.87
2022-11-14T13:44:20.947Z,853.77
2022-11-14T13:47:09.234Z,1543.43
2022-11-14T13:49:59.927Z,1125.30
2022-11-14T13:52:31.263Z,1454.57
2022-11-14T13:55:00.150Z,1999.90
2022-11-14T13:57:42.288Z,558.03
2022-11-14T14:00:19.641Z,1594.23
2022-11-14T14:03:15.774Z,1221.87
2022-11-14T14:06:14.147Z,1996.00
2022-11-14T14:09:10.562Z,1999.90
2022-11-14T14:11:51.885Z,810.17
2022-11-14T14:14:35.358Z,429.60
2022-11-14T14:17:12.987Z,1999.90
2022-11-14T14:19:53.034Z,1354.37
2022-11-14T14:22:29.823Z,1999.90
2022-11-14T14:25:06.185Z,1999.90
2022-11-14T14:27:42.760Z,1999.90
2022-11-14T14:30:12.610Z,1069.07
2022-11-14T14:32:42.236Z,1999.90
2022-11-14T14:35:24.710Z,1999.90
2022-11-14T14:37:53.445Z,1999.90
2022-11-14T14:40:26.460Z,1260.33
2022-11-14T14:42:57.314Z,1973.37
2022-11-14T14:45:26.843Z,1999.90
2022-11-14T14:48:03.555Z,1999.90
2022-11-14T14:50:38.316Z,1402.07
2022-11-14T14:53:07.095Z,1329.60
2022-11-14T14:55:37.295Z,1028.10
2022-11-14T14:58:21.160Z,428.77
2022-11-14T15:00:54.581Z,865.80
2022-11-14T15:03:25.542Z,687.33
2022-11-14T15:06:00.340Z,1873.83
2022-11-14T15:08:30.013Z,876.70
2022-11-14T15:11:01.020Z,853.10
2022-11-14T15:13:31.198Z,563.43
2022-11-14T15:15:59.701Z,487.90
2022-11-14T15:18:32.610Z,802.87
2022-11-14T15:21:09.211Z,649.00
2022-11-14T15:23:39.014Z,849.70
2022-11-14T15:26:14.953Z,1196.13
2022-11-14T15:28:43.086Z,394.43
2022-11-14T15:31:19.086Z,1999.90
2022-11-14T15:34:02.458Z,777.47
2022-11-14T15:36:30.542Z,1192.80
2022-11-14T15:39:03.705Z,1598.13
2022-11-14T15:41:33.459Z,639.73
2022-11-14T15:44:05.288Z,1157.97
2022-11-14T15:46:41.810Z,523.23
2022-11-14T15:49:20.138Z,957.37
2022-11-14T15:51:50.890Z,1973.53
2022-11-14T15:54:30.646Z,896.93
2022-11-14T15:57:00.473Z,760.93
2022-11-14T15:59:31.387Z,757.07
2022-11-14T16:02:04.366Z,1675.03
2022-11-14T16:04:36.167Z,1622.97
2022-11-14T16:07:04.332Z,1999.90
2022-11-14T16:09:32.404Z,1675.17
2022-11-14T16:12:00.465Z,1152.10
2022-11-14T16:14:28.480Z,563.90
2022-11-14T16:16:56.512Z,1077.27
2022-11-14T16:19:24.520Z,762.13
2022-11-14T16:21:53.920Z,706.97
2022-11-14T16:24:23.425Z,972.30
2022-11-14T16:26:51.565Z,1985.03
2022-11-14T16:29:19.565Z,1559.30
2022-11-14T16:31:48.408Z,995.73
2022-11-14T16:34:21.372Z,1999.90
2022-11-14T16:36:51.582Z,1343.80
2022-11-14T16:39:20.941Z,1358.20
2022-11-14T16:41:48.951Z,1999.90
2022-11-14T16:44:18.663Z,1271.97
2022-11-14T16:46:47.419Z,1999.90
2022-11-14T16:49:16.104Z,819.37
2022-11-14T16:51:48.237Z,1999.90
2022-11-14T16:54:17.635Z,1633.03
2022-11-14T16:56:48.372Z,1999.90
2022-11-14T16:59:16.547Z,1999.90
2022-11-14T17:01:44.704Z,654.97
2022-11-14T17:04:12.748Z,770.87
2022-11-14T17:06:40.871Z,1999.90
2022-11-14T17:09:08.980Z,796.90
2022-11-14T17:11:37.042Z,1999.90
2022-11-14T17:14:06.575Z,1999.90
2022-11-14T17:16:34.623Z,1999.90
2022-11-14T17:19:02.795Z,766.77
2022-11-14T17:21:30.833Z,1999.90
2022-11-14T17:24:00.427Z,798.43
2022-11-14T17:26:29.044Z,885.77
2022-11-14T17:28:57.229Z,1269.27
2022-11-14T17:31:26.626Z,1967.83
2022-11-14T17:33:56.449Z,1999.90
2022-11-14T17:36:25.829Z,1999.90
2022-11-14T17:38:53.865Z,1760.73
2022-11-14T17:41:21.914Z,1999.90
2022-11-14T17:43:53.892Z,1634.20
2022-11-14T17:46:21.930Z,1999.90
2022-11-14T17:48:51.501Z,1218.70
2022-11-14T17:51:19.489Z,1999.90
2022-11-14T17:53:47.845Z,1999.90
2022-11-14T17:56:17.465Z,1999.90
2022-11-14T17:58:46.348Z,1999.90
2022-11-14T18:01:16.389Z,1217.37
2022-11-14T18:03:44.619Z,1810.67
2022-11-14T18:06:16.359Z,1999.90
2022-11-14T18:08:44.451Z,978.47
2022-11-14T18:11:14.817Z,1419.87
2022-11-14T18:13:43.166Z,1815.17
2022-11-14T18:16:13.524Z,1026.70
2022-11-14T18:18:41.604Z,1972.63
2022-11-14T18:21:10.584Z,1757.63
2022-11-14T18:23:39.987Z,1146.60
2022-11-14T18:26:12.030Z,1999.90
2022-11-14T18:28:40.193Z,1991.73
2022-11-14T18:31:10.878Z,671.63
2022-11-14T18:33:39.876Z,1350.00
2022-11-14T18:36:11.531Z,1429.83
2022-11-14T18:38:41.002Z,1026.13
2022-11-14T18:41:10.799Z,1782.47
2022-11-14T18:43:38.872Z,1999.90
2022-11-14T18:46:08.425Z,1999.90
2022-11-14T18:48:38.120Z,1999.90
2022-11-14T18:51:08.502Z,1999.90
2022-11-14T18:53:37.226Z,1911.23
2022-11-14T18:56:07.578Z,1999.90
2022-11-14T18:58:36.662Z,1367.03
2022-11-14T19:01:11.345Z,1999.90
2022-11-14T19:03:39.555Z,1999.90
2022-11-14T19:06:09.750Z,1999.90
2022-11-14T19:08:37.802Z,1999.90
2022-11-14T19:11:09.019Z,1999.90
2022-11-14T19:13:37.050Z,1999.90
2022-11-14T19:16:05.946Z,1999.90
2022-11-14T19:18:34.161Z,1999.90
2022-11-14T19:21:03.700Z,1999.90
2022-11-14T19:23:31.905Z,1448.80
2022-11-14T19:26:01.297Z,1999.90
2022-11-14T19:28:30.739Z,1999.90
2022-11-14T19:31:03.025Z,1999.90
2022-11-14T19:33:31.570Z,1999.90
2022-11-14T19:36:05.170Z,1999.90
2022-11-14T19:38:33.262Z,1999.90
2022-11-14T19:41:07.535Z,1999.90
2022-11-14T19:43:38.680Z,1999.90
2022-11-14T19:46:07.751Z,1999.90
2022-11-14T19:48:36.551Z,1970.67
2022-11-14T19:51:06.249Z,1782.50
2022-11-14T19:53:35.799Z,1999.90
2022-11-14T19:56:05.560Z,1406.17
2022-11-14T19:58:36.031Z,1999.90
2022-11-14T20:01:07.249Z,1999.90
2022-11-14T20:03:35.859Z,1999.90
2022-11-14T20:06:05.048Z,1682.83
2022-11-14T20:08:33.051Z,1999.90
2022-11-14T20:11:02.800Z,1999.90
2022-11-14T20:13:31.458Z,1999.90
2022-11-14T20:16:00.154Z,1999.90
2022-11-14T20:18:30.455Z,1511.97
2022-11-14T20:21:03.008Z,1999.90
2022-11-14T20:23:31.353Z,1999.90
2022-11-14T20:25:59.703Z,1754.17
2022-11-14T20:28:27.978Z,1147.63
2022-11-14T20:30:56.077Z,1999.90
2022-11-14T20:33:24.117Z,1999.90
2022-11-14T20:35:53.512Z,1941.47
2022-11-14T20:38:21.547Z,1999.90
2022-11-14T20:40:54.787Z,1999.90
2022-11-14T20:43:23.028Z,1999.90
2022-11-14T20:45:58.498Z,1568.57
2022-11-14T20:48:27.151Z,947.40
2022-11-14T20:51:02.811Z,1096.23
2022-11-14T20:53:31.520Z,1999.90
2022-11-14T20:55:59.990Z,1999.90
2022-11-14T20:58:28.271Z,1865.70
2022-11-14T21:00:56.440Z,1999.90
2022-11-14T21:03:24.844Z,1853.80
2022-11-14T21:05:52.993Z,1704.43
2022-11-14T21:08:22.394Z,1999.90
2022-11-14T21:10:53.228Z,1999.90
2022-11-14T21:13:40.662Z,1999.90
2022-11-14T21:16:10.555Z,1880.73
2022-11-14T21:18:40.749Z,1999.90
2022-11-14T21:21:15.892Z,1999.90
2022-11-14T21:23:46.365Z,1999.90
2022-11-14T21:26:16.250Z,1999.90
2022-11-14T21:28:46.952Z,1999.90
2022-11-14T21:31:16.866Z,1743.63
2022-11-14T21:33:45.169Z,1932.53
2022-11-14T21:39:04.501Z,1999.90
2022-11-14T21:41:33.145Z,1073.23
2022-11-14T21:44:03.365Z,1149.73
2022-11-14T21:46:31.412Z,739.97
2022-11-14T21:48:59.452Z,1673.50
2022-11-14T21:51:28.919Z,840.30
2022-11-14T21:53:59.402Z,848.97
2022-11-14T21:56:30.251Z,1470.30
2022-11-14T21:59:14.048Z,359.13
2022-11-14T22:02:01.897Z,1108.87
2022-11-14T22:04:30.066Z,607.43
2022-11-14T22:06:58.475Z,1631.13
2022-11-14T22:09:28.004Z,1216.50
2022-11-14T22:11:57.416Z,456.90
2022-11-14T22:14:25.695Z,1429.87
2022-11-14T22:16:53.716Z,993.97
2022-11-14T22:19:21.823Z,1134.93
2022-11-14T22:21:50.053Z,646.33
2022-11-14T22:24:18.076Z,886.27
2022-11-14T22:26:46.101Z,476.07
2022-11-14T22:29:15.469Z,193.43
2022-11-14T22:31:43.487Z,1308.97
2022-11-14T22:34:12.803Z,717.43
2022-11-14T22:36:40.842Z,1125.63
2022-11-14T22:39:08.948Z,1316.17
2022-11-14T22:41:36.976Z,1026.73
2022-11-14T22:44:05.065Z,781.77
2022-11-14T22:46:34.462Z,859.20
2022-11-14T22:49:03.826Z,1109.70
2022-11-14T22:51:31.923Z,742.80
2022-11-14T22:54:00.071Z,629.60
2022-11-14T22:56:29.968Z,460.73
2022-11-14T22:59:00.163Z,604.30
2022-11-14T23:01:29.656Z,1094.13
2022-11-14T23:04:00.579Z,862.07
2022-11-14T23:06:29.456Z,951.80
2022-11-14T23:08:57.771Z,1999.90
2022-11-14T23:11:27.514Z,446.93
2022-11-14T23:13:57.109Z,516.07
2022-11-14T23:16:26.715Z,1690.50
2022-11-14T23:18:56.542Z,951.97
2022-11-14T23:21:28.365Z,795.17
2022-11-14T23:23:57.307Z,1198.67
2022-11-14T23:26:26.493Z,543.53
2022-11-14T23:28:55.457Z,1222.07
2022-11-14T23:31:24.911Z,790.97
2022-11-14T23:33:54.806Z,1089.87
2022-11-14T23:36:23.247Z,693.57
2022-11-14T23:38:54.548Z,1685.00
2022-11-14T23:41:25.390Z,1131.87
2022-11-14T23:43:53.523Z,593.33
2022-11-14T23:46:21.582Z,838.83
2022-11-14T23:48:50.778Z,1234.40
2022-11-14T23:51:18.828Z,398.10
2022-11-14T23:53:46.883Z,373.90
2022-11-14T23:56:16.500Z,1009.30
2022-11-14T23:58:44.847Z,180.33
